createdAt,value
2022-12-13T00:01:55.095Z,14.77
2022-12-13T00:04:24.567Z,14.77
2022-12-13T00:06:53.852Z,13.70
2022-12-13T00:09:20.815Z,13.30
2022-12-13T00:11:49.606Z,13.43
2022-12-13T00:14:17.908Z,13.55
2022-12-13T00:16:49.317Z,15.07
2022-12-13T00:19:17.811Z,14.82
2022-12-13T00:21:44.982Z,14.35
2022-12-13T00:24:12.389Z,14.73
2022-12-13T00:26:39.510Z,14.50
2022-12-13T00:29:08.345Z,13.32
2022-12-13T00:31:58.570Z,14.63
2022-12-13T00:34:23.574Z,14.40
2022-12-13T00:36:50.522Z,14.88
2022-12-13T00:39:18.965Z,14.55
2022-12-13T00:41:46.740Z,13.95
2022-12-13T00:44:14.647Z,14.85
2022-12-13T00:46:42.018Z,13.43
2022-12-13T00:49:10.973Z,14.55
2022-12-13T00:51:38.620Z,13.75
2022-12-13T00:54:06.170Z,13.82
2022-12-13T00:56:33.890Z,13.70
2022-12-13T00:59:00.935Z,14.60
2022-12-13T01:01:32.414Z,14.77
2022-12-13T01:04:01.866Z,13.77
2022-12-13T01:06:40.932Z,14.45
2022-12-13T01:09:21.120Z,14.05
2022-12-13T01:11:49.233Z,14.85
2022-12-13T01:14:17.114Z,14.75
2022-12-13T01:16:44.115Z,14.95
2022-12-13T01:19:11.076Z,14.40
2022-12-13T01:21:38.135Z,14.93
2022-12-13T01:24:06.411Z,15.60
2022-12-13T01:26:33.765Z,15.77
2022-12-13T01:29:01.207Z,15.63
2022-12-13T01:31:28.963Z,14.63
2022-12-13T01:33:55.835Z,15.52
2022-12-13T01:36:27.144Z,15.63
2022-12-13T01:38:58.592Z,15.18
2022-12-13T01:41:28.654Z,15.27
2022-12-13T01:44:03.490Z,13.77
2022-12-13T01:46:34.748Z,15.52
2022-12-13T01:49:20.114Z,15.48
2022-12-13T01:52:04.891Z,14.88
2022-12-13T01:54:46.454Z,14.65
2022-12-13T01:57:18.975Z,16.55
2022-12-13T01:59:48.025Z,17.33
2022-12-13T02:02:16.037Z,16.45
2022-12-13T02:05:06.857Z,17.00
2022-12-13T02:07:38.047Z,17.52
2022-12-13T02:10:07.554Z,17.63
2022-12-13T02:12:37.575Z,17.83
2022-12-13T02:15:13.144Z,18.73
2022-12-13T02:18:10.749Z,17.88
2022-12-13T02:21:24.595Z,17.23
2022-12-13T02:24:38.078Z,16.48
2022-12-13T02:27:46.097Z,16.83
2022-12-13T02:30:26.957Z,16.85
2022-12-13T02:33:11.745Z,16.08
2022-12-13T02:36:08.715Z,16.60
2022-12-13T02:38:53.813Z,15.85
2022-12-13T02:41:49.075Z,15.85
2022-12-13T02:44:28.535Z,15.52
2022-12-13T02:47:02.674Z,15.70
2022-12-13T02:49:35.543Z,15.48
2022-12-13T02:52:03.481Z,15.13
2022-12-13T02:54:31.057Z,14.93
2022-12-13T02:57:00.251Z,15.13
2022-12-13T02:59:39.780Z,15.35
2022-12-13T03:02:31.099Z,15.70
2022-12-13T03:05:30.358Z,15.05
2022-12-13T03:08:31.628Z,14.77
2022-12-13T03:11:18.270Z,15.90
2022-12-13T03:13:52.274Z,14.38
2022-12-13T03:16:52.569Z,14.35
2022-12-13T03:19:20.312Z,14.52
2022-12-13T03:21:49.694Z,14.32
2022-12-13T03:24:20.291Z,14.20
2022-12-13T03:26:49.935Z,14.82
2022-12-13T03:29:23.766Z,13.00
2022-12-13T03:31:53.498Z,14.70
2022-12-13T03:34:23.152Z,14.85
2022-12-13T03:36:52.760Z,14.10
2022-12-13T03:39:21.551Z,15.45
2022-12-13T03:41:49.614Z,15.90
2022-12-13T03:44:16.645Z,16.25
2022-12-13T03:46:44.646Z,16.50
2022-12-13T03:49:16.863Z,17.13
2022-12-13T03:51:44.214Z,17.70
2022-12-13T03:54:11.096Z,17.38
2022-12-13T03:56:37.933Z,15.48
2022-12-13T03:59:04.760Z,14.68
2022-12-13T04:01:31.619Z,15.50
2022-12-13T04:03:58.399Z,16.90
2022-12-13T04:06:29.833Z,16.00
2022-12-13T04:08:59.624Z,16.08
2022-12-13T04:11:44.979Z,16.45
2022-12-13T04:14:12.347Z,18.30
2022-12-13T04:16:49.836Z,17.55
2022-12-13T04:19:16.709Z,15.70
2022-12-13T04:21:54.578Z,16.38
2022-12-13T04:24:31.741Z,16.50
2022-12-13T04:27:02.382Z,16.60
2022-12-13T04:29:34.182Z,16.38
2022-12-13T04:32:26.319Z,16.05
2022-12-13T04:34:52.726Z,15.82
2022-12-13T04:37:28.296Z,16.80
2022-12-13T04:40:00.526Z,16.38
2022-12-13T04:42:28.458Z,16.85
2022-12-13T04:44:55.271Z,17.45
2022-12-13T04:47:22.172Z,17.90
2022-12-13T04:49:49.089Z,17.23
2022-12-13T04:52:22.419Z,17.60
2022-12-13T04:54:55.812Z,17.67
2022-12-13T04:57:23.558Z,17.33
2022-12-13T04:59:50.373Z,16.08
2022-12-13T05:02:23.439Z,15.95
2022-12-13T05:04:53.557Z,16.58
2022-12-13T05:07:23.314Z,14.65
2022-12-13T05:09:50.112Z,15.25
2022-12-13T05:12:22.454Z,16.10
2022-12-13T05:14:53.901Z,16.73
2022-12-13T05:17:21.455Z,16.02
2022-12-13T05:19:48.454Z,15.77
2022-12-13T05:22:20.635Z,15.68
2022-12-13T05:24:48.935Z,16.85
2022-12-13T05:27:24.426Z,16.33
2022-12-13T05:30:03.285Z,15.75
2022-12-13T05:32:43.370Z,16.15
2022-12-13T05:35:22.854Z,14.48
2022-12-13T05:37:55.274Z,16.23
2022-12-13T05:40:27.603Z,15.68
2022-12-13T05:43:00.792Z,16.00
2022-12-13T05:45:30.959Z,15.10
2022-12-13T05:47:58.185Z,15.68
2022-12-13T05:50:25.618Z,15.18
2022-12-13T05:52:52.538Z,15.20
2022-12-13T05:55:19.682Z,14.70
2022-12-13T05:57:51.015Z,15.32
2022-12-13T06:00:28.916Z,14.57
2022-12-13T06:02:56.559Z,14.88
2022-12-13T06:05:27.586Z,14.38
2022-12-13T06:07:57.607Z,15.43
2022-12-13T06:10:35.059Z,15.05
2022-12-13T06:13:22.030Z,16.13
2022-12-13T06:15:51.922Z,14.88
2022-12-13T06:18:28.375Z,14.95
2022-12-13T06:21:02.229Z,14.95
2022-12-13T06:23:32.050Z,15.00
2022-12-13T06:25:59.134Z,14.05
2022-12-13T06:28:25.937Z,14.52
2022-12-13T06:30:52.849Z,15.05
2022-12-13T06:33:23.520Z,14.65
2022-12-13T06:35:52.516Z,14.90
2022-12-13T06:38:22.001Z,14.43
2022-12-13T06:41:32.063Z,15.75
2022-12-13T06:43:59.512Z,14.75
2022-12-13T06:46:26.569Z,14.85
2022-12-13T06:48:53.550Z,15.05
2022-12-13T06:51:22.981Z,14.30
2022-12-13T06:54:00.933Z,15.02
2022-12-13T06:56:28.691Z,15.40
2022-12-13T06:59:01.125Z,14.43
2022-12-13T07:01:37.056Z,15.90
2022-12-13T07:04:29.554Z,14.93
2022-12-13T07:06:55.847Z,14.48
2022-12-13T07:09:30.223Z,15.32
2022-12-13T07:11:57.154Z,15.32
2022-12-13T07:14:24.000Z,16.40
2022-12-13T07:16:50.725Z,14.98
2022-12-13T07:19:23.042Z,15.95
2022-12-13T07:21:51.909Z,15.43
2022-12-13T07:24:19.153Z,15.20
2022-12-13T07:26:46.634Z,15.32
2022-12-13T07:29:13.428Z,14.32
2022-12-13T07:31:49.283Z,14.75
2022-12-13T07:34:16.196Z,15.40
2022-12-13T07:36:43.029Z,15.15
2022-12-13T07:39:10.779Z,15.68
2022-12-13T07:41:37.638Z,15.70
2022-12-13T07:44:06.134Z,15.60
2022-12-13T07:46:34.306Z,15.85
2022-12-13T07:49:05.678Z,16.20
2022-12-13T07:51:35.172Z,15.73
2022-12-13T07:54:06.763Z,16.35
2022-12-13T07:56:35.261Z,16.20
2022-12-13T07:59:02.465Z,16.23
2022-12-13T08:01:34.669Z,15.52
2022-12-13T08:04:03.646Z,16.02
2022-12-13T08:06:35.353Z,18.08
2022-12-13T08:09:04.037Z,16.80
2022-12-13T08:11:31.371Z,16.70
2022-12-13T08:13:58.209Z,16.85
2022-12-13T08:16:27.157Z,17.77
2022-12-13T08:19:02.306Z,16.58
2022-12-13T08:21:57.172Z,16.90
2022-12-13T08:24:29.645Z,15.85
2022-12-13T08:27:01.123Z,16.40
2022-12-13T08:29:34.685Z,15.60
2022-12-13T08:32:06.062Z,16.25
2022-12-13T08:34:32.981Z,16.65
2022-12-13T08:37:02.651Z,15.70
2022-12-13T08:39:38.892Z,16.48
2022-12-13T08:42:16.505Z,16.42
2022-12-13T08:44:50.710Z,15.93
2022-12-13T08:47:24.070Z,17.40
2022-12-13T08:50:02.285Z,16.40
2022-12-13T08:52:39.519Z,16.17
2022-12-13T08:55:13.317Z,16.02
2022-12-13T08:57:41.873Z,17.15
2022-12-13T09:00:13.912Z,18.48
2022-12-13T09:02:40.844Z,17.35
2022-12-13T09:05:09.666Z,17.33
2022-12-13T09:07:39.567Z,17.75
2022-12-13T09:10:25.485Z,17.38
2022-12-13T09:13:01.537Z,17.13
2022-12-13T09:15:34.295Z,17.30
2022-12-13T09:18:04.892Z,18.27
2022-12-13T09:20:41.131Z,18.73
2022-12-13T09:23:21.596Z,17.92
2022-12-13T09:26:05.326Z,17.65
2022-12-13T09:28:36.914Z,17.40
2022-12-13T09:31:19.162Z,18.42
2022-12-13T09:33:46.801Z,18.48
2022-12-13T09:36:18.212Z,18.35
2022-12-13T09:38:45.824Z,19.30
2022-12-13T09:41:28.407Z,18.25
2022-12-13T09:44:30.614Z,18.60
2022-12-13T09:47:02.007Z,20.85
2022-12-13T09:49:43.112Z,20.27
2022-12-13T09:52:24.949Z,21.02
2022-12-13T09:54:57.475Z,21.30
2022-12-13T09:57:33.836Z,21.77
2022-12-13T10:00:07.953Z,22.38
2022-12-13T10:02:51.701Z,21.55
2022-12-13T10:05:39.433Z,23.20
2022-12-13T10:08:21.758Z,22.83
2022-12-13T10:10:51.682Z,23.17
2022-12-13T10:14:01.989Z,23.08
2022-12-13T10:16:42.099Z,22.67
2022-12-13T10:19:40.310Z,22.92
2022-12-13T10:22:15.604Z,23.33
2022-12-13T10:25:04.760Z,22.50
2022-12-13T10:27:40.418Z,24.48
2022-12-13T10:30:26.155Z,24.67
2022-12-13T10:32:57.127Z,24.55
2022-12-13T10:35:30.246Z,22.60
2022-12-13T10:38:20.633Z,25.05
2022-12-13T10:40:49.048Z,24.13
2022-12-13T10:43:29.981Z,24.00
2022-12-13T10:45:59.084Z,24.55
2022-12-13T10:48:40.646Z,23.75
2022-12-13T10:51:17.661Z,24.27
2022-12-13T10:53:51.919Z,24.13
2022-12-13T10:56:23.506Z,24.52
2022-12-13T10:59:23.397Z,23.88
2022-12-13T11:01:50.257Z,24.63
2022-12-13T11:04:35.903Z,25.20
2022-12-13T11:07:34.082Z,24.83
2022-12-13T11:10:27.016Z,24.63
2022-12-13T11:13:03.774Z,22.88
2022-12-13T11:15:35.861Z,23.38
2022-12-13T11:18:18.426Z,23.60
2022-12-13T11:21:11.751Z,22.95
2022-12-13T11:23:44.672Z,23.15
2022-12-13T11:26:24.366Z,22.85
2022-12-13T11:29:43.690Z,23.05
2022-12-13T11:32:43.758Z,23.08
2022-12-13T11:35:17.937Z,21.60
2022-12-13T11:38:37.356Z,22.27
2022-12-13T11:41:32.380Z,23.23
2022-12-13T11:44:29.445Z,23.85
2022-12-13T11:46:59.875Z,22.85
2022-12-13T11:49:41.149Z,24.02
2022-12-13T11:52:35.269Z,25.40
2022-12-13T11:55:11.650Z,25.08
2022-12-13T11:57:52.819Z,25.95
2022-12-13T12:00:37.352Z,23.60
2022-12-13T12:03:21.151Z,22.65
2022-12-13T12:05:55.923Z,25.27
2022-12-13T12:08:51.084Z,25.75
2022-12-13T12:11:44.671Z,23.98
2022-12-13T12:14:35.862Z,23.70
2022-12-13T12:17:06.210Z,21.75
2022-12-13T12:19:40.197Z,24.63
2022-12-13T12:23:08.277Z,22.23
2022-12-13T12:25:52.625Z,21.95
2022-12-13T12:29:20.272Z,20.83
2022-12-13T12:32:32.030Z,23.45
2022-12-13T12:36:16.330Z,22.52
2022-12-13T12:38:52.263Z,21.45
2022-12-13T12:41:45.523Z,22.55
2022-12-13T12:44:30.760Z,24.92
2022-12-13T12:50:45.863Z,22.08
2022-12-13T12:53:42.910Z,23.33
2022-12-13T12:56:15.642Z,23.80
2022-12-13T12:59:14.049Z,24.02
2022-12-13T13:02:07.911Z,24.65
2022-12-13T13:04:44.673Z,22.25
2022-12-13T13:07:24.101Z,22.95
2022-12-13T13:09:54.872Z,22.10
2022-12-13T13:12:29.151Z,24.95
2022-12-13T13:14:56.672Z,26.98
2022-12-13T13:17:26.196Z,30.10
2022-12-13T13:20:17.600Z,28.10
2022-12-13T13:22:53.754Z,28.45
2022-12-13T13:25:43.891Z,29.90
2022-12-13T13:28:22.577Z,31.15
2022-12-13T13:31:10.576Z,28.00
2022-12-13T13:33:51.334Z,27.63
2022-12-13T13:36:41.203Z,27.88
2022-12-13T13:39:36.274Z,26.75
2022-12-13T13:42:20.522Z,26.63
2022-12-13T13:44:50.129Z,27.80
2022-12-13T13:47:20.008Z,26.55
2022-12-13T13:50:08.664Z,25.42
2022-12-13T13:52:44.645Z,26.30
2022-12-13T13:56:00.167Z,29.05
2022-12-13T13:59:03.352Z,26.08
2022-12-13T14:02:05.522Z,27.35
2022-12-13T14:05:30.416Z,26.50
2022-12-13T14:08:20.508Z,24.58
2022-12-13T14:11:21.599Z,28.42
2022-12-13T14:14:00.342Z,25.73
2022-12-13T14:16:50.081Z,25.33
2022-12-13T14:20:12.731Z,26.63
2022-12-13T14:23:00.855Z,25.35
2022-12-13T14:26:13.997Z,29.25
2022-12-13T14:29:01.499Z,26.48
2022-12-13T14:31:41.763Z,26.25
2022-12-13T14:34:25.420Z,25.65
2022-12-13T14:37:18.508Z,28.00
2022-12-13T14:39:45.385Z,26.35
2022-12-13T14:42:33.953Z,27.75
2022-12-13T14:45:26.080Z,26.27
2022-12-13T14:47:54.636Z,27.15
2022-12-13T14:50:23.679Z,26.17
2022-12-13T14:52:50.667Z,27.27
2022-12-13T14:55:30.383Z,27.88
2022-12-13T14:58:02.778Z,26.90
2022-12-13T15:00:39.169Z,26.50
2022-12-13T15:03:07.284Z,27.63
2022-12-13T15:05:50.888Z,26.83
2022-12-13T15:08:20.298Z,28.73
2022-12-13T15:10:54.804Z,26.63
2022-12-13T15:13:46.833Z,27.40
2022-12-13T15:16:28.217Z,29.60
2022-12-13T15:19:30.293Z,28.48
2022-12-13T15:22:07.501Z,29.75
2022-12-13T15:24:46.861Z,27.80
2022-12-13T15:27:21.612Z,27.65
2022-12-13T15:29:51.013Z,27.10
2022-12-13T15:32:22.599Z,27.45
2022-12-13T15:34:51.259Z,27.80
2022-12-13T15:37:32.961Z,27.25
2022-12-13T15:40:08.326Z,29.65
2022-12-13T15:42:49.003Z,32.38
2022-12-13T15:45:34.780Z,31.38
2022-12-13T15:48:04.906Z,28.27
2022-12-13T15:50:35.026Z,32.10
2022-12-13T15:53:21.413Z,31.75
2022-12-13T15:55:48.265Z,29.55
2022-12-13T15:58:37.014Z,30.45
2022-12-13T16:01:07.443Z,30.05
2022-12-13T16:03:46.651Z,30.05
2022-12-13T16:06:22.222Z,28.95
2022-12-13T16:08:56.900Z,28.85
2022-12-13T16:11:36.106Z,27.40
2022-12-13T16:14:31.511Z,27.83
2022-12-13T16:17:19.532Z,31.38
2022-12-13T16:19:46.554Z,26.17
2022-12-13T16:22:13.434Z,30.40
2022-12-13T16:24:40.241Z,29.13
2022-12-13T16:27:09.096Z,28.08
2022-12-13T16:29:36.673Z,28.77
2022-12-13T16:32:08.432Z,29.35
2022-12-13T16:34:38.939Z,27.95
2022-12-13T16:37:08.840Z,27.75
2022-12-13T16:39:53.942Z,27.30
2022-12-13T16:42:21.090Z,26.10
2022-12-13T16:45:05.806Z,27.45
2022-12-13T16:47:46.380Z,26.02
2022-12-13T16:50:19.163Z,27.58
2022-12-13T16:52:46.613Z,26.95
2022-12-13T16:55:13.579Z,27.60
2022-12-13T16:57:40.560Z,28.35
2022-12-13T17:00:10.605Z,25.50
2022-12-13T17:02:38.216Z,26.80
2022-12-13T17:05:06.135Z,25.90
2022-12-13T17:07:35.375Z,24.23
2022-12-13T17:10:02.735Z,25.70
2022-12-13T17:12:29.510Z,23.55
2022-12-13T17:14:56.306Z,28.08
2022-12-13T17:17:23.262Z,24.10
2022-12-13T17:19:50.155Z,25.35
2022-12-13T17:22:17.036Z,25.38
2022-12-13T17:24:43.986Z,25.13
2022-12-13T17:27:10.873Z,26.15
2022-12-13T17:29:37.840Z,23.67
2022-12-13T17:32:05.239Z,24.98
2022-12-13T17:34:32.477Z,24.08
2022-12-13T17:36:59.310Z,23.65
2022-12-13T17:39:26.160Z,24.40
2022-12-13T17:41:54.848Z,25.15
2022-12-13T17:44:26.374Z,24.55
2022-12-13T17:46:55.651Z,22.70
2022-12-13T17:49:24.273Z,23.85
2022-12-13T17:51:53.828Z,24.90
2022-12-13T17:54:23.711Z,25.77
2022-12-13T17:56:51.667Z,25.17
2022-12-13T17:59:19.165Z,24.90
2022-12-13T18:01:46.637Z,24.80
2022-12-13T18:04:14.034Z,25.55
2022-12-13T18:06:42.476Z,23.98
2022-12-13T18:09:11.986Z,21.40
2022-12-13T18:11:39.710Z,22.67
2022-12-13T18:14:08.697Z,24.25
2022-12-13T18:16:38.349Z,22.65
2022-12-13T18:19:14.116Z,23.08
2022-12-13T18:21:43.168Z,22.70
2022-12-13T18:24:10.876Z,23.17
2022-12-13T18:26:37.696Z,23.95
2022-12-13T18:29:04.857Z,26.08
2022-12-13T18:31:31.879Z,24.98
2022-12-13T18:33:59.292Z,26.08
2022-12-13T18:36:26.511Z,25.38
2022-12-13T18:38:53.802Z,23.10
2022-12-13T18:41:24.725Z,27.35
2022-12-13T18:44:13.428Z,26.17
2022-12-13T18:46:44.761Z,26.13
2022-12-13T18:49:13.064Z,25.15
2022-12-13T18:51:39.806Z,24.88
2022-12-13T18:54:07.641Z,25.75
2022-12-13T18:56:34.386Z,26.85
2022-12-13T18:59:01.179Z,26.58
2022-12-13T19:01:28.577Z,23.52
2022-12-13T19:03:55.468Z,22.75
2022-12-13T19:06:27.735Z,22.33
2022-12-13T19:08:57.885Z,23.23
2022-12-13T19:11:28.038Z,25.98
2022-12-13T19:13:55.486Z,25.08
2022-12-13T19:16:25.520Z,24.88
2022-12-13T19:18:52.892Z,24.15
2022-12-13T19:21:22.053Z,26.15
2022-12-13T19:23:56.502Z,26.10
2022-12-13T19:26:27.032Z,23.48
2022-12-13T19:28:57.618Z,22.52
2022-12-13T19:31:30.961Z,23.15
2022-12-13T19:34:01.522Z,26.77
2022-12-13T19:36:29.816Z,25.25
2022-12-13T19:38:56.880Z,23.85
2022-12-13T19:41:24.234Z,24.35
2022-12-13T19:43:52.957Z,24.55
2022-12-13T19:46:20.290Z,22.83
2022-12-13T19:48:47.685Z,22.45
2022-12-13T19:51:14.927Z,22.77
2022-12-13T19:53:42.045Z,26.35
2022-12-13T19:56:15.117Z,25.48
2022-12-13T19:58:41.979Z,24.20
2022-12-13T20:01:09.515Z,23.90
2022-12-13T20:03:45.506Z,22.52
2022-12-13T20:06:17.265Z,22.92
2022-12-13T20:08:45.383Z,23.00
2022-12-13T20:11:23.287Z,23.83
2022-12-13T20:13:54.950Z,24.02
2022-12-13T20:16:25.251Z,22.77
2022-12-13T20:18:57.724Z,24.15
2022-12-13T20:21:25.315Z,24.77
2022-12-13T20:23:52.409Z,23.83
2022-12-13T20:26:24.442Z,25.17
2022-12-13T20:28:51.765Z,27.35
2022-12-13T20:31:26.386Z,25.17
2022-12-13T20:33:58.910Z,24.13
2022-12-13T20:36:28.655Z,23.42
2022-12-13T20:38:58.147Z,21.80
2022-12-13T20:41:29.323Z,22.20
2022-12-13T20:43:58.294Z,23.55
2022-12-13T20:46:26.876Z,21.45
2022-12-13T20:48:55.288Z,21.33
2022-12-13T20:51:26.417Z,20.48
2022-12-13T20:53:54.595Z,21.67
2022-12-13T20:56:27.979Z,21.27
2022-12-13T20:58:55.350Z,22.38
2022-12-13T21:01:33.140Z,22.40
2022-12-13T21:04:02.863Z,20.23
2022-12-13T21:06:32.372Z,20.63
2022-12-13T21:09:02.688Z,19.45
2022-12-13T21:11:46.824Z,20.42
2022-12-13T21:14:28.591Z,21.40
2022-12-13T21:17:01.130Z,22.27
2022-12-13T21:19:39.039Z,21.55
2022-12-13T21:22:07.531Z,21.83
2022-12-13T21:24:34.580Z,22.35
2022-12-13T21:27:01.687Z,21.65
2022-12-13T21:29:28.570Z,20.40
2022-12-13T21:31:56.097Z,21.95
2022-12-13T21:34:23.222Z,21.48
2022-12-13T21:36:52.309Z,19.27
2022-12-13T21:39:28.192Z,21.25
2022-12-13T21:41:56.041Z,22.77
2022-12-13T21:44:23.512Z,21.73
2022-12-13T21:49:37.875Z,22.70
2022-12-13T21:52:05.005Z,22.25
2022-12-13T21:54:31.796Z,20.83
2022-12-13T21:57:16.947Z,21.90
2022-12-13T21:59:43.750Z,21.65
2022-12-13T22:02:19.233Z,21.58
2022-12-13T22:04:52.437Z,21.70
2022-12-13T22:07:30.335Z,20.75
2022-12-13T22:09:59.038Z,19.50
2022-12-13T22:12:31.951Z,20.35
2022-12-13T22:14:59.053Z,18.92
2022-12-13T22:17:34.636Z,19.10
2022-12-13T22:20:02.043Z,20.83
2022-12-13T22:22:29.122Z,18.35
2022-12-13T22:24:56.068Z,18.23
2022-12-13T22:27:26.232Z,18.92
2022-12-13T22:29:58.902Z,17.98
2022-12-13T22:32:28.962Z,20.30
2022-12-13T22:34:56.713Z,20.55
2022-12-13T22:37:24.696Z,20.23
2022-12-13T22:39:51.635Z,20.25
2022-12-13T22:42:19.512Z,18.77
2022-12-13T22:44:46.317Z,18.35
2022-12-13T22:47:13.075Z,17.65
2022-12-13T22:49:40.163Z,18.48
2022-12-13T22:52:08.443Z,19.10
2022-12-13T22:54:35.722Z,17.98
2022-12-13T22:57:02.739Z,18.02
2022-12-13T22:59:29.733Z,17.08
2022-12-13T23:02:01.986Z,18.23
2022-12-13T23:04:32.302Z,16.77
2022-12-13T23:06:59.081Z,17.55
2022-12-13T23:09:25.906Z,18.13
2022-12-13T23:12:11.268Z,17.55
2022-12-13T23:14:38.017Z,17.88
2022-12-13T23:17:05.783Z,16.50
2022-12-13T23:19:50.078Z,17.38
2022-12-13T23:22:20.594Z,16.77
2022-12-13T23:24:47.380Z,17.15
2022-12-13T23:27:14.407Z,17.95
2022-12-13T23:29:41.187Z,17.55
2022-12-13T23:32:08.128Z,17.55
2022-12-13T23:34:35.058Z,16.58
2022-12-13T23:37:01.826Z,15.52
2022-12-13T23:39:28.810Z,16.58
2022-12-13T23:41:55.711Z,16.73
2022-12-13T23:44:22.711Z,16.90
2022-12-13T23:46:49.536Z,17.40
2022-12-13T23:49:17.899Z,16.42
2022-12-13T23:51:44.785Z,15.85
2022-12-13T23:54:16.228Z,14.93
2022-12-13T23:56:43.329Z,14.25
2022-12-13T23:59:10.706Z,15.57
